sensor_id;sensor_type;location;lat;lon;timestamp;P1;durP1;ratioP1;P2;durP2;ratioP2
4529;SDS011;2277;51.626;7.516;2023-05-06T00:01:48;5.73;;;5.23;;
4529;SDS011;2277;51.626;7.516;2023-05-06T00:04:13;10.50;;;5.50;;
4529;SDS011;2277;51.626;7.516;2023-05-06T00:06:39;8.90;;;8.00;;
4529;SDS011;2277;51.626;7.516;2023-05-06T00:09:05;6.47;;;4.70;;
4529;SDS011;2277;51.626;7.516;2023-05-06T00:11:31;9.20;;;7.70;;
4529;SDS011;2277;51.626;7.516;2023-05-06T00:13:57;6.27;;;4.30;;
4529;SDS011;2277;51.626;7.516;2023-05-06T00:16:22;7.93;;;5.10;;
4529;SDS011;2277;51.626;7.516;2023-05-06T00:18:48;5.00;;;4.50;;
4529;SDS011;2277;51.626;7.516;2023-05-06T00:21:13;6.27;;;5.33;;
4529;SDS011;2277;51.626;7.516;2023-05-06T00:23:39;5.03;;;4.47;;
4529;SDS011;2277;51.626;7.516;2023-05-06T00:26:05;6.23;;;5.63;;
4529;SDS011;2277;51.626;7.516;2023-05-06T00:28:31;7.50;;;4.70;;
4529;SDS011;2277;51.626;7.516;2023-05-06T00:30:57;7.90;;;4.90;;
4529;SDS011;2277;51.626;7.516;2023-05-06T00:33:25;8.03;;;5.83;;
4529;SDS011;2277;51.626;7.516;2023-05-06T00:35:51;7.20;;;4.77;;
4529;SDS011;2277;51.626;7.516;2023-05-06T00:38:17;4.47;;;4.03;;
4529;SDS011;2277;51.626;7.516;2023-05-06T00:40:43;8.60;;;6.17;;
4529;SDS011;2277;51.626;7.516;2023-05-06T00:43:09;9.03;;;6.60;;
4529;SDS011;2277;51.626;7.516;2023-05-06T00:45:35;7.63;;;5.83;;
4529;SDS011;2277;51.626;7.516;2023-05-06T00:48:03;6.23;;;4.90;;
4529;SDS011;2277;51.626;7.516;2023-05-06T00:50:29;6.70;;;4.43;;
4529;SDS011;2277;51.626;7.516;2023-05-06T00:52:57;7.50;;;6.10;;
4529;SDS011;2277;51.626;7.516;2023-05-06T00:55:23;6.33;;;5.20;;
4529;SDS011;2277;51.626;7.516;2023-05-06T00:57:50;7.63;;;5.67;;
4529;SDS011;2277;51.626;7.516;2023-05-06T01:00:17;11.87;;;7.47;;
4529;SDS011;2277;51.626;7.516;2023-05-06T01:02:44;5.60;;;4.90;;
4529;SDS011;2277;51.626;7.516;2023-05-06T01:05:11;5.17;;;4.33;;
4529;SDS011;2277;51.626;7.516;2023-05-06T01:08:20;7.23;;;4.63;;
4529;SDS011;2277;51.626;7.516;2023-05-06T01:15:53;4.33;;;3.93;;
4529;SDS011;2277;51.626;7.516;2023-05-06T01:18:22;9.30;;;5.70;;
4529;SDS011;2277;51.626;7.516;2023-05-06T01:20:51;7.83;;;4.77;;
4529;SDS011;2277;51.626;7.516;2023-05-06T01:23:18;10.97;;;5.50;;
4529;SDS011;2277;51.626;7.516;2023-05-06T01:25:44;7.70;;;4.63;;
4529;SDS011;2277;51.626;7.516;2023-05-06T01:28:10;6.47;;;5.83;;
4529;SDS011;2277;51.626;7.516;2023-05-06T01:35:54;8.90;;;5.87;;
4529;SDS011;2277;51.626;7.516;2023-05-06T01:41:16;12.00;;;5.77;;
4529;SDS011;2277;51.626;7.516;2023-05-06T01:43:44;8.87;;;5.63;;
4529;SDS011;2277;51.626;7.516;2023-05-06T01:46:18;7.63;;;6.43;;
4529;SDS011;2277;51.626;7.516;2023-05-06T01:48:44;7.30;;;4.80;;
4529;SDS011;2277;51.626;7.516;2023-05-06T01:51:13;7.63;;;6.80;;
4529;SDS011;2277;51.626;7.516;2023-05-06T01:53:38;6.03;;;5.43;;
4529;SDS011;2277;51.626;7.516;2023-05-06T01:56:04;6.43;;;5.40;;
4529;SDS011;2277;51.626;7.516;2023-05-06T01:58:30;16.60;;;5.00;;
4529;SDS011;2277;51.626;7.516;2023-05-06T02:00:55;10.27;;;6.43;;
4529;SDS011;2277;51.626;7.516;2023-05-06T02:03:21;8.93;;;4.73;;
4529;SDS011;2277;51.626;7.516;2023-05-06T02:05:46;7.97;;;5.27;;
4529;SDS011;2277;51.626;7.516;2023-05-06T02:08:12;5.30;;;4.47;;
4529;SDS011;2277;51.626;7.516;2023-05-06T02:10:38;7.00;;;4.20;;
4529;SDS011;2277;51.626;7.516;2023-05-06T02:13:03;4.63;;;4.10;;
4529;SDS011;2277;51.626;7.516;2023-05-06T02:15:29;15.50;;;7.40;;
4529;SDS011;2277;51.626;7.516;2023-05-06T02:17:55;7.73;;;5.30;;
4529;SDS011;2277;51.626;7.516;2023-05-06T02:20:21;15.97;;;7.73;;
4529;SDS011;2277;51.626;7.516;2023-05-06T02:22:47;13.53;;;6.93;;
4529;SDS011;2277;51.626;7.516;2023-05-06T02:25:12;18.93;;;6.63;;
4529;SDS011;2277;51.626;7.516;2023-05-06T02:27:38;7.20;;;5.23;;
4529;SDS011;2277;51.626;7.516;2023-05-06T02:30:04;12.83;;;6.17;;
4529;SDS011;2277;51.626;7.516;2023-05-06T02:32:30;7.63;;;6.93;;
4529;SDS011;2277;51.626;7.516;2023-05-06T02:34:56;13.23;;;5.13;;
4529;SDS011;2277;51.626;7.516;2023-05-06T02:37:21;8.33;;;5.40;;
4529;SDS011;2277;51.626;7.516;2023-05-06T02:39:47;12.20;;;6.37;;
4529;SDS011;2277;51.626;7.516;2023-05-06T02:42:13;14.43;;;6.83;;
4529;SDS011;2277;51.626;7.516;2023-05-06T02:44:39;12.03;;;5.83;;
4529;SDS011;2277;51.626;7.516;2023-05-06T02:47:05;14.70;;;6.30;;
4529;SDS011;2277;51.626;7.516;2023-05-06T02:49:31;19.30;;;5.87;;
4529;SDS011;2277;51.626;7.516;2023-05-06T02:51:57;12.87;;;6.43;;
4529;SDS011;2277;51.626;7.516;2023-05-06T02:54:22;11.00;;;5.03;;
4529;SDS011;2277;51.626;7.516;2023-05-06T02:56:48;8.20;;;5.10;;
4529;SDS011;2277;51.626;7.516;2023-05-06T02:59:13;10.53;;;5.27;;
4529;SDS011;2277;51.626;7.516;2023-05-06T03:01:39;7.10;;;6.50;;
4529;SDS011;2277;51.626;7.516;2023-05-06T03:04:05;8.73;;;5.20;;
4529;SDS011;2277;51.626;7.516;2023-05-06T03:06:31;10.00;;;6.93;;
4529;SDS011;2277;51.626;7.516;2023-05-06T03:08:56;7.83;;;5.10;;
4529;SDS011;2277;51.626;7.516;2023-05-06T03:11:22;9.73;;;7.33;;
4529;SDS011;2277;51.626;7.516;2023-05-06T03:13:47;9.33;;;8.40;;
4529;SDS011;2277;51.626;7.516;2023-05-06T03:16:13;8.90;;;5.57;;
4529;SDS011;2277;51.626;7.516;2023-05-06T03:18:39;9.23;;;6.40;;
4529;SDS011;2277;51.626;7.516;2023-05-06T03:21:04;10.00;;;6.37;;
4529;SDS011;2277;51.626;7.516;2023-05-06T03:23:30;14.90;;;6.63;;
4529;SDS011;2277;51.626;7.516;2023-05-06T03:25:56;12.33;;;7.47;;
4529;SDS011;2277;51.626;7.516;2023-05-06T03:28:21;7.50;;;6.57;;
4529;SDS011;2277;51.626;7.516;2023-05-06T03:30:47;10.13;;;6.03;;
4529;SDS011;2277;51.626;7.516;2023-05-06T03:33:13;7.80;;;6.23;;
4529;SDS011;2277;51.626;7.516;2023-05-06T03:35:38;6.87;;;4.60;;
4529;SDS011;2277;51.626;7.516;2023-05-06T03:38:04;8.67;;;5.50;;
4529;SDS011;2277;51.626;7.516;2023-05-06T03:40:31;11.83;;;5.17;;
4529;SDS011;2277;51.626;7.516;2023-05-06T03:42:57;11.73;;;6.17;;
4529;SDS011;2277;51.626;7.516;2023-05-06T03:45:22;11.67;;;5.50;;
4529;SDS011;2277;51.626;7.516;2023-05-06T03:47:48;5.73;;;4.90;;
4529;SDS011;2277;51.626;7.516;2023-05-06T03:50:14;11.17;;;4.27;;
4529;SDS011;2277;51.626;7.516;2023-05-06T03:52:39;5.50;;;4.23;;
4529;SDS011;2277;51.626;7.516;2023-05-06T03:55:05;12.93;;;4.37;;
4529;SDS011;2277;51.626;7.516;2023-05-06T03:57:31;8.17;;;4.20;;
4529;SDS011;2277;51.626;7.516;2023-05-06T03:59:56;10.47;;;5.93;;
4529;SDS011;2277;51.626;7.516;2023-05-06T04:02:22;8.03;;;4.43;;
4529;SDS011;2277;51.626;7.516;2023-05-06T04:04:48;8.40;;;4.93;;
4529;SDS011;2277;51.626;7.516;2023-05-06T04:07:14;6.87;;;4.30;;
4529;SDS011;2277;51.626;7.516;2023-05-06T04:09:40;8.80;;;5.67;;
4529;SDS011;2277;51.626;7.516;2023-05-06T04:12:05;7.00;;;3.67;;
4529;SDS011;2277;51.626;7.516;2023-05-06T04:14:31;5.37;;;3.53;;
4529;SDS011;2277;51.626;7.516;2023-05-06T04:16:57;8.70;;;4.90;;
4529;SDS011;2277;51.626;7.516;2023-05-06T04:19:22;8.30;;;4.93;;
4529;SDS011;2277;51.626;7.516;2023-05-06T04:21:48;8.03;;;5.40;;
4529;SDS011;2277;51.626;7.516;2023-05-06T04:24:14;8.07;;;6.10;;
4529;SDS011;2277;51.626;7.516;2023-05-06T04:26:40;8.90;;;4.60;;
4529;SDS011;2277;51.626;7.516;2023-05-06T04:29:06;8.60;;;4.47;;
4529;SDS011;2277;51.626;7.516;2023-05-06T04:31:32;4.60;;;3.83;;
4529;SDS011;2277;51.626;7.516;2023-05-06T04:33:59;7.27;;;4.97;;
4529;SDS011;2277;51.626;7.516;2023-05-06T04:36:25;6.47;;;4.87;;
4529;SDS011;2277;51.626;7.516;2023-05-06T04:38:51;5.17;;;4.53;;
4529;SDS011;2277;51.626;7.516;2023-05-06T04:41:17;13.30;;;5.67;;
4529;SDS011;2277;51.626;7.516;2023-05-06T04:43:44;7.93;;;4.77;;
4529;SDS011;2277;51.626;7.516;2023-05-06T04:46:10;11.43;;;5.90;;
4529;SDS011;2277;51.626;7.516;2023-05-06T04:48:36;5.73;;;5.33;;
4529;SDS011;2277;51.626;7.516;2023-05-06T04:51:02;4.47;;;3.93;;
4529;SDS011;2277;51.626;7.516;2023-05-06T04:53:29;13.03;;;4.90;;
4529;SDS011;2277;51.626;7.516;2023-05-06T04:55:55;10.17;;;5.07;;
4529;SDS011;2277;51.626;7.516;2023-05-06T04:58:21;5.73;;;4.80;;
4529;SDS011;2277;51.626;7.516;2023-05-06T05:00:46;8.33;;;4.70;;
4529;SDS011;2277;51.626;7.516;2023-05-06T05:03:12;7.27;;;6.43;;
4529;SDS011;2277;51.626;7.516;2023-05-06T05:05:37;7.03;;;4.37;;
4529;SDS011;2277;51.626;7.516;2023-05-06T05:08:03;11.30;;;5.00;;
4529;SDS011;2277;51.626;7.516;2023-05-06T05:10:29;11.33;;;5.33;;
4529;SDS011;2277;51.626;7.516;2023-05-06T05:12:55;8.00;;;4.43;;
4529;SDS011;2277;51.626;7.516;2023-05-06T05:15:21;6.03;;;5.30;;
4529;SDS011;2277;51.626;7.516;2023-05-06T05:17:47;14.20;;;4.17;;
4529;SDS011;2277;51.626;7.516;2023-05-06T05:20:13;5.63;;;3.47;;
4529;SDS011;2277;51.626;7.516;2023-05-06T05:22:39;10.70;;;5.50;;
4529;SDS011;2277;51.626;7.516;2023-05-06T05:25:04;5.90;;;4.33;;
4529;SDS011;2277;51.626;7.516;2023-05-06T05:27:31;9.53;;;5.60;;
4529;SDS011;2277;51.626;7.516;2023-05-06T05:29:56;12.50;;;6.60;;
4529;SDS011;2277;51.626;7.516;2023-05-06T05:32:22;10.10;;;4.40;;
4529;SDS011;2277;51.626;7.516;2023-05-06T05:34:47;10.03;;;6.93;;
4529;SDS011;2277;51.626;7.516;2023-05-06T05:37:13;5.23;;;4.30;;
4529;SDS011;2277;51.626;7.516;2023-05-06T05:39:38;7.13;;;4.30;;
4529;SDS011;2277;51.626;7.516;2023-05-06T05:42:04;5.73;;;4.10;;
4529;SDS011;2277;51.626;7.516;2023-05-06T05:44:30;4.97;;;4.57;;
4529;SDS011;2277;51.626;7.516;2023-05-06T05:46:55;7.63;;;5.80;;
4529;SDS011;2277;51.626;7.516;2023-05-06T05:49:21;6.63;;;4.33;;
4529;SDS011;2277;51.626;7.516;2023-05-06T05:51:46;8.07;;;4.57;;
4529;SDS011;2277;51.626;7.516;2023-05-06T05:54:12;6.87;;;4.17;;
4529;SDS011;2277;51.626;7.516;2023-05-06T05:56:38;5.30;;;4.20;;
4529;SDS011;2277;51.626;7.516;2023-05-06T05:59:04;9.00;;;4.90;;
4529;SDS011;2277;51.626;7.516;2023-05-06T06:01:30;7.60;;;6.70;;
4529;SDS011;2277;51.626;7.516;2023-05-06T06:03:55;7.80;;;7.00;;
4529;SDS011;2277;51.626;7.516;2023-05-06T06:06:21;6.03;;;5.43;;
4529;SDS011;2277;51.626;7.516;2023-05-06T06:08:48;8.00;;;7.30;;
4529;SDS011;2277;51.626;7.516;2023-05-06T06:11:14;5.33;;;4.50;;
4529;SDS011;2277;51.626;7.516;2023-05-06T06:13:39;5.77;;;4.17;;
4529;SDS011;2277;51.626;7.516;2023-05-06T06:16:05;6.13;;;5.73;;
4529;SDS011;2277;51.626;7.516;2023-05-06T06:18:31;9.63;;;6.10;;
4529;SDS011;2277;51.626;7.516;2023-05-06T06:20:56;5.17;;;4.47;;
4529;SDS011;2277;51.626;7.516;2023-05-06T06:23:22;7.80;;;5.97;;
4529;SDS011;2277;51.626;7.516;2023-05-06T06:25:48;6.80;;;4.60;;
4529;SDS011;2277;51.626;7.516;2023-05-06T06:28:14;12.77;;;8.47;;
4529;SDS011;2277;51.626;7.516;2023-05-06T06:30:40;7.23;;;5.60;;
4529;SDS011;2277;51.626;7.516;2023-05-06T06:33:05;5.77;;;5.03;;
4529;SDS011;2277;51.626;7.516;2023-05-06T06:35:31;8.23;;;6.17;;
4529;SDS011;2277;51.626;7.516;2023-05-06T06:37:57;6.13;;;5.53;;
4529;SDS011;2277;51.626;7.516;2023-05-06T06:40:22;6.47;;;5.93;;
4529;SDS011;2277;51.626;7.516;2023-05-06T06:42:48;6.00;;;5.17;;
4529;SDS011;2277;51.626;7.516;2023-05-06T06:45:14;7.97;;;6.23;;
4529;SDS011;2277;51.626;7.516;2023-05-06T06:47:39;11.03;;;6.70;;
4529;SDS011;2277;51.626;7.516;2023-05-06T06:50:05;6.43;;;4.90;;
4529;SDS011;2277;51.626;7.516;2023-05-06T06:52:32;9.43;;;6.40;;
4529;SDS011;2277;51.626;7.516;2023-05-06T06:54:58;8.83;;;5.97;;
4529;SDS011;2277;51.626;7.516;2023-05-06T06:57:24;19.33;;;6.53;;
4529;SDS011;2277;51.626;7.516;2023-05-06T06:59:50;7.60;;;5.97;;
4529;SDS011;2277;51.626;7.516;2023-05-06T07:02:17;8.40;;;7.60;;
4529;SDS011;2277;51.626;7.516;2023-05-06T07:04:43;8.60;;;6.67;;
4529;SDS011;2277;51.626;7.516;2023-05-06T07:07:09;10.07;;;6.73;;
4529;SDS011;2277;51.626;7.516;2023-05-06T07:09:35;18.10;;;8.70;;
4529;SDS011;2277;51.626;7.516;2023-05-06T07:12:00;8.43;;;7.60;;
4529;SDS011;2277;51.626;7.516;2023-05-06T07:14:26;9.30;;;5.70;;
4529;SDS011;2277;51.626;7.516;2023-05-06T07:16:52;8.77;;;6.40;;
4529;SDS011;2277;51.626;7.516;2023-05-06T07:19:17;10.37;;;7.60;;
4529;SDS011;2277;51.626;7.516;2023-05-06T07:21:43;6.80;;;5.50;;
4529;SDS011;2277;51.626;7.516;2023-05-06T07:24:08;6.87;;;5.10;;
4529;SDS011;2277;51.626;7.516;2023-05-06T07:26:34;10.87;;;5.63;;
4529;SDS011;2277;51.626;7.516;2023-05-06T07:29:00;9.00;;;6.03;;
4529;SDS011;2277;51.626;7.516;2023-05-06T07:31:26;11.33;;;7.83;;
4529;SDS011;2277;51.626;7.516;2023-05-06T07:33:52;6.23;;;5.20;;
4529;SDS011;2277;51.626;7.516;2023-05-06T07:36:17;11.50;;;7.43;;
4529;SDS011;2277;51.626;7.516;2023-05-06T07:38:43;14.87;;;6.17;;
4529;SDS011;2277;51.626;7.516;2023-05-06T07:41:09;6.27;;;4.80;;
4529;SDS011;2277;51.626;7.516;2023-05-06T07:43:35;11.23;;;5.97;;
4529;SDS011;2277;51.626;7.516;2023-05-06T07:46:00;10.33;;;7.30;;
4529;SDS011;2277;51.626;7.516;2023-05-06T07:48:27;8.80;;;6.50;;
4529;SDS011;2277;51.626;7.516;2023-05-06T07:50:53;11.10;;;6.13;;
4529;SDS011;2277;51.626;7.516;2023-05-06T07:53:19;8.17;;;5.27;;
4529;SDS011;2277;51.626;7.516;2023-05-06T07:55:45;9.43;;;5.30;;
4529;SDS011;2277;51.626;7.516;2023-05-06T07:58:10;10.13;;;7.93;;
4529;SDS011;2277;51.626;7.516;2023-05-06T08:00:36;7.07;;;5.00;;
4529;SDS011;2277;51.626;7.516;2023-05-06T08:03:02;6.30;;;5.20;;
4529;SDS011;2277;51.626;7.516;2023-05-06T08:05:28;5.77;;;4.23;;
4529;SDS011;2277;51.626;7.516;2023-05-06T08:07:53;9.73;;;6.07;;
4529;SDS011;2277;51.626;7.516;2023-05-06T08:10:19;10.93;;;5.23;;
4529;SDS011;2277;51.626;7.516;2023-05-06T08:12:46;10.27;;;4.63;;
4529;SDS011;2277;51.626;7.516;2023-05-06T08:15:12;6.07;;;5.10;;
4529;SDS011;2277;51.626;7.516;2023-05-06T08:17:38;8.90;;;6.43;;
4529;SDS011;2277;51.626;7.516;2023-05-06T08:20:03;8.13;;;5.03;;
4529;SDS011;2277;51.626;7.516;2023-05-06T08:22:30;11.70;;;6.53;;
4529;SDS011;2277;51.626;7.516;2023-05-06T08:24:55;9.13;;;5.27;;
4529;SDS011;2277;51.626;7.516;2023-05-06T08:27:22;7.57;;;5.23;;
4529;SDS011;2277;51.626;7.516;2023-05-06T08:29:47;6.67;;;4.27;;
4529;SDS011;2277;51.626;7.516;2023-05-06T08:32:13;5.40;;;3.70;;
4529;SDS011;2277;51.626;7.516;2023-05-06T08:34:38;10.03;;;4.70;;
4529;SDS011;2277;51.626;7.516;2023-05-06T08:37:04;19.40;;;5.20;;
4529;SDS011;2277;51.626;7.516;2023-05-06T08:39:29;9.70;;;4.37;;
4529;SDS011;2277;51.626;7.516;2023-05-06T08:41:55;4.30;;;3.70;;
4529;SDS011;2277;51.626;7.516;2023-05-06T08:44:24;5.30;;;4.63;;
4529;SDS011;2277;51.626;7.516;2023-05-06T08:46:50;4.43;;;3.80;;
4529;SDS011;2277;51.626;7.516;2023-05-06T08:49:16;3.87;;;3.47;;
4529;SDS011;2277;51.626;7.516;2023-05-06T08:51:42;4.80;;;3.83;;
4529;SDS011;2277;51.626;7.516;2023-05-06T08:54:09;7.43;;;3.70;;
4529;SDS011;2277;51.626;7.516;2023-05-06T08:56:37;7.63;;;5.33;;
4529;SDS011;2277;51.626;7.516;2023-05-06T08:59:06;6.23;;;4.43;;
4529;SDS011;2277;51.626;7.516;2023-05-06T09:01:34;7.80;;;3.53;;
4529;SDS011;2277;51.626;7.516;2023-05-06T09:04:00;8.10;;;5.00;;
4529;SDS011;2277;51.626;7.516;2023-05-06T09:06:27;6.67;;;5.30;;
4529;SDS011;2277;51.626;7.516;2023-05-06T09:08:53;4.53;;;3.80;;
4529;SDS011;2277;51.626;7.516;2023-05-06T09:13:49;6.03;;;4.70;;
4529;SDS011;2277;51.626;7.516;2023-05-06T09:16:28;8.93;;;4.97;;
4529;SDS011;2277;51.626;7.516;2023-05-06T09:18:54;6.17;;;5.03;;
4529;SDS011;2277;51.626;7.516;2023-05-06T09:21:20;4.50;;;3.67;;
4529;SDS011;2277;51.626;7.516;2023-05-06T09:23:53;3.50;;;3.13;;
4529;SDS011;2277;51.626;7.516;2023-05-06T09:26:21;6.13;;;5.10;;
4529;SDS011;2277;51.626;7.516;2023-05-06T09:28:47;7.50;;;3.80;;
4529;SDS011;2277;51.626;7.516;2023-05-06T09:31:13;8.57;;;5.27;;
4529;SDS011;2277;51.626;7.516;2023-05-06T09:33:39;7.13;;;3.80;;
4529;SDS011;2277;51.626;7.516;2023-05-06T09:36:05;5.80;;;4.33;;
4529;SDS011;2277;51.626;7.516;2023-05-06T09:38:31;5.50;;;4.27;;
4529;SDS011;2277;51.626;7.516;2023-05-06T09:40:57;7.43;;;5.07;;
4529;SDS011;2277;51.626;7.516;2023-05-06T09:43:23;5.53;;;3.70;;
4529;SDS011;2277;51.626;7.516;2023-05-06T09:45:49;4.83;;;3.93;;
4529;SDS011;2277;51.626;7.516;2023-05-06T09:48:15;5.37;;;4.30;;
4529;SDS011;2277;51.626;7.516;2023-05-06T09:50:42;6.47;;;4.37;;
4529;SDS011;2277;51.626;7.516;2023-05-06T09:53:08;6.73;;;4.13;;
4529;SDS011;2277;51.626;7.516;2023-05-06T09:55:37;5.23;;;4.50;;
4529;SDS011;2277;51.626;7.516;2023-05-06T09:58:04;4.60;;;3.90;;
4529;SDS011;2277;51.626;7.516;2023-05-06T10:00:31;8.87;;;4.67;;
4529;SDS011;2277;51.626;7.516;2023-05-06T10:02:57;5.70;;;2.80;;
4529;SDS011;2277;51.626;7.516;2023-05-06T10:05:24;6.63;;;4.33;;
4529;SDS011;2277;51.626;7.516;2023-05-06T10:07:51;4.13;;;2.90;;
4529;SDS011;2277;51.626;7.516;2023-05-06T10:10:18;6.90;;;4.03;;
4529;SDS011;2277;51.626;7.516;2023-05-06T10:12:45;3.57;;;2.70;;
4529;SDS011;2277;51.626;7.516;2023-05-06T10:15:12;8.17;;;3.23;;
4529;SDS011;2277;51.626;7.516;2023-05-06T10:17:38;9.03;;;4.57;;
4529;SDS011;2277;51.626;7.516;2023-05-06T10:20:05;3.63;;;2.80;;
4529;SDS011;2277;51.626;7.516;2023-05-06T10:22:44;4.57;;;4.10;;
4529;SDS011;2277;51.626;7.516;2023-05-06T10:25:37;3.97;;;2.87;;
4529;SDS011;2277;51.626;7.516;2023-05-06T10:28:05;3.23;;;2.60;;
4529;SDS011;2277;51.626;7.516;2023-05-06T10:30:33;6.50;;;3.40;;
4529;SDS011;2277;51.626;7.516;2023-05-06T10:33:03;6.23;;;4.50;;
4529;SDS011;2277;51.626;7.516;2023-05-06T10:38:08;2.73;;;2.50;;
4529;SDS011;2277;51.626;7.516;2023-05-06T10:40:38;2.73;;;2.33;;
4529;SDS011;2277;51.626;7.516;2023-05-06T10:43:24;7.17;;;4.67;;
4529;SDS011;2277;51.626;7.516;2023-05-06T10:46:13;5.60;;;3.67;;
4529;SDS011;2277;51.626;7.516;2023-05-06T10:51:28;3.53;;;3.20;;
4529;SDS011;2277;51.626;7.516;2023-05-06T10:54:05;5.20;;;4.57;;
4529;SDS011;2277;51.626;7.516;2023-05-06T10:56:39;3.67;;;3.33;;
4529;SDS011;2277;51.626;7.516;2023-05-06T10:59:23;6.40;;;3.77;;
4529;SDS011;2277;51.626;7.516;2023-05-06T11:01:54;3.60;;;3.30;;
4529;SDS011;2277;51.626;7.516;2023-05-06T11:04:29;4.37;;;3.27;;
4529;SDS011;2277;51.626;7.516;2023-05-06T11:07:05;7.37;;;4.07;;
4529;SDS011;2277;51.626;7.516;2023-05-06T11:10:01;4.10;;;3.70;;
4529;SDS011;2277;51.626;7.516;2023-05-06T11:26:13;4.90;;;2.93;;
4529;SDS011;2277;51.626;7.516;2023-05-06T11:28:43;3.70;;;3.10;;
4529;SDS011;2277;51.626;7.516;2023-05-06T11:31:11;1.60;;;1.50;;
4529;SDS011;2277;51.626;7.516;2023-05-06T11:33:43;1.80;;;1.60;;
4529;SDS011;2277;51.626;7.516;2023-05-06T11:36:13;2.00;;;1.77;;
4529;SDS011;2277;51.626;7.516;2023-05-06T11:38:41;3.10;;;2.13;;
4529;SDS011;2277;51.626;7.516;2023-05-06T11:41:08;2.13;;;1.87;;
4529;SDS011;2277;51.626;7.516;2023-05-06T11:43:33;4.00;;;2.27;;
4529;SDS011;2277;51.626;7.516;2023-05-06T11:45:59;2.30;;;1.77;;
4529;SDS011;2277;51.626;7.516;2023-05-06T11:48:25;3.57;;;3.00;;
4529;SDS011;2277;51.626;7.516;2023-05-06T11:50:51;3.10;;;2.07;;
4529;SDS011;2277;51.626;7.516;2023-05-06T11:53:18;2.70;;;2.50;;
4529;SDS011;2277;51.626;7.516;2023-05-06T11:55:45;3.50;;;3.07;;
4529;SDS011;2277;51.626;7.516;2023-05-06T11:58:16;3.77;;;2.73;;
4529;SDS011;2277;51.626;7.516;2023-05-06T12:00:52;2.70;;;1.90;;
4529;SDS011;2277;51.626;7.516;2023-05-06T12:03:23;7.70;;;3.20;;
4529;SDS011;2277;51.626;7.516;2023-05-06T12:05:49;3.43;;;2.30;;
4529;SDS011;2277;51.626;7.516;2023-05-06T12:08:16;3.33;;;3.07;;
4529;SDS011;2277;51.626;7.516;2023-05-06T12:10:47;3.73;;;2.47;;
4529;SDS011;2277;51.626;7.516;2023-05-06T12:13:17;5.57;;;3.67;;
4529;SDS011;2277;51.626;7.516;2023-05-06T12:15:44;6.80;;;2.30;;
4529;SDS011;2277;51.626;7.516;2023-05-06T12:18:11;2.60;;;2.40;;
4529;SDS011;2277;51.626;7.516;2023-05-06T12:20:37;3.40;;;2.53;;
4529;SDS011;2277;51.626;7.516;2023-05-06T12:23:10;3.37;;;2.60;;
4529;SDS011;2277;51.626;7.516;2023-05-06T12:25:37;2.93;;;1.90;;
4529;SDS011;2277;51.626;7.516;2023-05-06T12:28:19;10.93;;;2.00;;
4529;SDS011;2277;51.626;7.516;2023-05-06T12:30:50;3.33;;;3.00;;
4529;SDS011;2277;51.626;7.516;2023-05-06T12:33:16;3.37;;;3.07;;
4529;SDS011;2277;51.626;7.516;2023-05-06T12:35:42;2.70;;;2.20;;
4529;SDS011;2277;51.626;7.516;2023-05-06T12:38:15;1.93;;;1.67;;
4529;SDS011;2277;51.626;7.516;2023-05-06T12:40:42;8.60;;;3.23;;
4529;SDS011;2277;51.626;7.516;2023-05-06T12:43:16;3.13;;;2.30;;
4529;SDS011;2277;51.626;7.516;2023-05-06T12:45:41;2.43;;;2.23;;
4529;SDS011;2277;51.626;7.516;2023-05-06T12:48:11;3.10;;;2.23;;
4529;SDS011;2277;51.626;7.516;2023-05-06T12:50:41;3.33;;;2.67;;
4529;SDS011;2277;51.626;7.516;2023-05-06T12:53:09;3.80;;;2.30;;
4529;SDS011;2277;51.626;7.516;2023-05-06T12:55:39;5.17;;;2.50;;
4529;SDS011;2277;51.626;7.516;2023-05-06T12:58:15;2.57;;;2.33;;
4529;SDS011;2277;51.626;7.516;2023-05-06T13:00:43;1.90;;;1.50;;
4529;SDS011;2277;51.626;7.516;2023-05-06T13:03:08;3.70;;;3.27;;
4529;SDS011;2277;51.626;7.516;2023-05-06T13:05:35;2.60;;;2.40;;
4529;SDS011;2277;51.626;7.516;2023-05-06T13:08:01;5.10;;;2.07;;
4529;SDS011;2277;51.626;7.516;2023-05-06T13:10:28;2.23;;;1.90;;
4529;SDS011;2277;51.626;7.516;2023-05-06T13:12:54;1.90;;;1.80;;
4529;SDS011;2277;51.626;7.516;2023-05-06T13:15:19;2.47;;;1.97;;
4529;SDS011;2277;51.626;7.516;2023-05-06T13:17:45;2.70;;;1.77;;
4529;SDS011;2277;51.626;7.516;2023-05-06T13:20:12;1.80;;;1.50;;
4529;SDS011;2277;51.626;7.516;2023-05-06T13:22:38;3.30;;;2.40;;
4529;SDS011;2277;51.626;7.516;2023-05-06T13:25:03;3.83;;;2.40;;
4529;SDS011;2277;51.626;7.516;2023-05-06T13:27:29;4.10;;;2.00;;
4529;SDS011;2277;51.626;7.516;2023-05-06T13:29:55;6.80;;;3.07;;
4529;SDS011;2277;51.626;7.516;2023-05-06T13:32:21;2.20;;;1.50;;
4529;SDS011;2277;51.626;7.516;2023-05-06T13:34:47;2.60;;;1.60;;
4529;SDS011;2277;51.626;7.516;2023-05-06T13:37:12;1.93;;;1.47;;
4529;SDS011;2277;51.626;7.516;2023-05-06T13:39:38;2.13;;;1.50;;
4529;SDS011;2277;51.626;7.516;2023-05-06T13:42:04;1.57;;;1.43;;
4529;SDS011;2277;51.626;7.516;2023-05-06T13:44:30;1.70;;;1.60;;
4529;SDS011;2277;51.626;7.516;2023-05-06T13:46:55;1.93;;;1.23;;
4529;SDS011;2277;51.626;7.516;2023-05-06T13:49:21;2.73;;;1.50;;
4529;SDS011;2277;51.626;7.516;2023-05-06T13:51:46;3.40;;;1.60;;
4529;SDS011;2277;51.626;7.516;2023-05-06T13:54:12;1.60;;;1.40;;
4529;SDS011;2277;51.626;7.516;2023-05-06T13:56:38;2.73;;;1.90;;
4529;SDS011;2277;51.626;7.516;2023-05-06T13:59:03;3.93;;;2.33;;
4529;SDS011;2277;51.626;7.516;2023-05-06T14:01:29;7.97;;;1.40;;
4529;SDS011;2277;51.626;7.516;2023-05-06T14:03:55;2.33;;;2.13;;
4529;SDS011;2277;51.626;7.516;2023-05-06T14:06:20;2.80;;;2.07;;
4529;SDS011;2277;51.626;7.516;2023-05-06T14:08:46;1.83;;;1.63;;
4529;SDS011;2277;51.626;7.516;2023-05-06T14:11:11;2.07;;;1.90;;
4529;SDS011;2277;51.626;7.516;2023-05-06T14:13:38;1.80;;;1.47;;
4529;SDS011;2277;51.626;7.516;2023-05-06T14:16:04;7.47;;;2.30;;
4529;SDS011;2277;51.626;7.516;2023-05-06T14:18:31;1.67;;;1.37;;
4529;SDS011;2277;51.626;7.516;2023-05-06T14:20:57;1.30;;;1.10;;
4529;SDS011;2277;51.626;7.516;2023-05-06T14:23:23;1.80;;;1.70;;
4529;SDS011;2277;51.626;7.516;2023-05-06T14:25:49;1.77;;;1.43;;
4529;SDS011;2277;51.626;7.516;2023-05-06T14:28:15;1.30;;;1.20;;
4529;SDS011;2277;51.626;7.516;2023-05-06T14:30:40;1.77;;;1.67;;
4529;SDS011;2277;51.626;7.516;2023-05-06T14:33:09;1.17;;;1.07;;
4529;SDS011;2277;51.626;7.516;2023-05-06T14:35:38;2.03;;;1.53;;
4529;SDS011;2277;51.626;7.516;2023-05-06T14:38:05;2.57;;;1.40;;
4529;SDS011;2277;51.626;7.516;2023-05-06T14:40:31;1.60;;;1.03;;
4529;SDS011;2277;51.626;7.516;2023-05-06T14:42:57;2.10;;;1.50;;
4529;SDS011;2277;51.626;7.516;2023-05-06T14:45:22;1.60;;;1.10;;
4529;SDS011;2277;51.626;7.516;2023-05-06T14:47:48;1.90;;;1.40;;
4529;SDS011;2277;51.626;7.516;2023-05-06T14:50:14;7.40;;;1.50;;
4529;SDS011;2277;51.626;7.516;2023-05-06T14:52:39;1.30;;;1.13;;
4529;SDS011;2277;51.626;7.516;2023-05-06T14:55:06;1.53;;;1.43;;
4529;SDS011;2277;51.626;7.516;2023-05-06T14:57:33;2.03;;;1.30;;
4529;SDS011;2277;51.626;7.516;2023-05-06T15:00:00;1.80;;;1.20;;
4529;SDS011;2277;51.626;7.516;2023-05-06T15:02:33;1.60;;;1.50;;
4529;SDS011;2277;51.626;7.516;2023-05-06T15:04:58;1.93;;;1.77;;
4529;SDS011;2277;51.626;7.516;2023-05-06T15:07:24;2.00;;;1.70;;
4529;SDS011;2277;51.626;7.516;2023-05-06T15:09:50;4.20;;;2.00;;
4529;SDS011;2277;51.626;7.516;2023-05-06T15:12:16;2.20;;;1.10;;
4529;SDS011;2277;51.626;7.516;2023-05-06T15:14:42;2.13;;;1.43;;
4529;SDS011;2277;51.626;7.516;2023-05-06T15:17:07;1.53;;;1.43;;
4529;SDS011;2277;51.626;7.516;2023-05-06T15:19:33;3.37;;;1.70;;
4529;SDS011;2277;51.626;7.516;2023-05-06T15:21:59;1.50;;;1.23;;
4529;SDS011;2277;51.626;7.516;2023-05-06T15:24:24;3.73;;;2.43;;
4529;SDS011;2277;51.626;7.516;2023-05-06T15:26:50;2.43;;;1.60;;
4529;SDS011;2277;51.626;7.516;2023-05-06T15:29:17;3.40;;;1.90;;
4529;SDS011;2277;51.626;7.516;2023-05-06T15:31:43;1.87;;;1.40;;
4529;SDS011;2277;51.626;7.516;2023-05-06T15:34:09;1.67;;;1.20;;
4529;SDS011;2277;51.626;7.516;2023-05-06T15:36:35;4.03;;;1.80;;
4529;SDS011;2277;51.626;7.516;2023-05-06T15:39:01;2.53;;;1.40;;
4529;SDS011;2277;51.626;7.516;2023-05-06T15:41:27;1.90;;;1.50;;
4529;SDS011;2277;51.626;7.516;2023-05-06T15:43:55;1.77;;;1.40;;
4529;SDS011;2277;51.626;7.516;2023-05-06T15:46:22;1.90;;;1.50;;